Airport Name : Takamatsu

Other Name : Takamatsu

ICAO : RJOT

IATA : TAK

FAA :

Latitude : 34.214167

Longitude : 134.015556

Country : Japan

Local Date and Time : 23 Oct 2020 05:22

 

TAF (Terminal Aerodrome Forecast)

TAF RJOT 221706Z 2218/2400 25006KT 7000 -SHRA FEW001 SCT015 BKN025 TEMPO 2218/2223 3000 -SHRA BR BCFG FEW000 BKN008 BKN015

 

METAR (METeorological Aerodrome Report)

To Charter a Jet Click here.